createdAt,value
2023-05-01T00:01:00.454Z,13.14
2023-05-01T00:03:30.804Z,13.13
2023-05-01T00:06:04.382Z,13.12
2023-05-01T00:08:33.251Z,13.09
2023-05-01T00:11:04.329Z,13.07
2023-05-01T00:13:33.915Z,13.04
2023-05-01T00:16:02.911Z,13.04
2023-05-01T00:18:32.948Z,13.00
2023-05-01T00:21:02.033Z,12.97
2023-05-01T00:23:30.605Z,12.90
2023-05-01T00:25:59.613Z,12.79
2023-05-01T00:28:28.245Z,12.74
2023-05-01T00:30:58.536Z,12.71
2023-05-01T00:33:27.196Z,12.70
2023-05-01T00:35:57.659Z,12.69
2023-05-01T00:38:26.233Z,12.72
2023-05-01T00:40:55.486Z,12.72
2023-05-01T00:43:24.127Z,12.72
2023-05-01T00:45:53.101Z,12.74
2023-05-01T00:48:21.742Z,12.70
2023-05-01T00:50:52.079Z,12.68
2023-05-01T00:53:23.306Z,12.67
2023-05-01T00:55:52.469Z,12.65
2023-05-01T00:58:21.149Z,12.64
2023-05-01T01:00:50.779Z,12.60
2023-05-01T01:03:19.505Z,12.52
2023-05-01T01:05:54.604Z,12.62
2023-05-01T01:08:31.906Z,12.63
2023-05-01T01:11:13.018Z,12.52
2023-05-01T01:13:48.049Z,12.42
2023-05-01T01:16:22.742Z,12.46
2023-05-01T01:18:57.675Z,12.40
2023-05-01T01:21:33.138Z,12.34
2023-05-01T01:24:37.307Z,12.45
2023-05-01T01:27:46.908Z,12.45
2023-05-01T01:30:59.313Z,12.45
2023-05-01T01:33:57.233Z,12.36
2023-05-01T01:36:40.167Z,12.31
2023-05-01T01:39:24.427Z,12.32
2023-05-01T01:41:54.679Z,12.28
2023-05-01T01:44:41.950Z,12.28
2023-05-01T01:47:15.491Z,12.30
2023-05-01T01:49:51.352Z,12.27
2023-05-01T01:52:23.273Z,12.19
2023-05-01T01:54:58.617Z,12.07
2023-05-01T01:57:29.540Z,12.01
2023-05-01T01:59:59.388Z,12.00
2023-05-01T02:02:29.792Z,12.02
2023-05-01T02:05:01.064Z,12.04
2023-05-01T02:07:31.943Z,12.03
2023-05-01T02:10:03.956Z,12.06
2023-05-01T02:12:34.904Z,12.01
2023-05-01T02:15:04.879Z,11.99
2023-05-01T02:17:34.684Z,11.98
2023-05-01T02:20:08.180Z,11.98
2023-05-01T02:22:38.755Z,11.97
2023-05-01T02:25:10.542Z,11.93
2023-05-01T02:27:41.986Z,11.91
2023-05-01T02:30:12.535Z,11.89
2023-05-01T02:32:41.431Z,11.87
2023-05-01T02:35:11.947Z,11.82
2023-05-01T02:37:41.309Z,11.75
2023-05-01T02:40:14.526Z,11.73
2023-05-01T02:42:45.011Z,11.56
2023-05-01T02:45:20.933Z,11.17
2023-05-01T02:47:52.835Z,11.22
2023-05-01T02:50:24.648Z,11.26
2023-05-01T02:52:53.682Z,11.11
2023-05-01T02:55:58.585Z,11.17
2023-05-01T02:58:27.381Z,10.94
2023-05-01T03:00:56.354Z,10.41
2023-05-01T03:03:26.334Z,10.69
2023-05-01T03:05:57.614Z,10.82
2023-05-01T03:08:26.172Z,10.82
2023-05-01T03:10:55.192Z,10.82
2023-05-01T03:13:23.849Z,10.83
2023-05-01T03:15:53.262Z,10.45
2023-05-01T03:18:22.382Z,10.31
2023-05-01T03:20:57.640Z,9.91
2023-05-01T03:23:28.019Z,10.11
2023-05-01T03:25:57.523Z,9.95
2023-05-01T03:28:26.067Z,9.74
2023-05-01T03:30:55.319Z,9.74
2023-05-01T03:33:24.253Z,9.80
2023-05-01T03:36:03.324Z,10.05
2023-05-01T03:38:33.525Z,10.19
2023-05-01T03:41:11.449Z,10.30
2023-05-01T03:43:49.218Z,10.15
2023-05-01T03:46:34.093Z,9.88
2023-05-01T03:49:03.066Z,10.15
2023-05-01T03:51:39.222Z,10.30
2023-05-01T03:54:08.091Z,10.27
2023-05-01T03:56:52.062Z,10.31
2023-05-01T03:59:21.932Z,10.07
2023-05-01T04:01:51.387Z,10.36
2023-05-01T04:04:20.733Z,10.37
2023-05-01T04:06:58.354Z,10.58
2023-05-01T04:09:27.046Z,10.72
2023-05-01T04:11:56.223Z,10.87
2023-05-01T04:14:25.092Z,11.03
2023-05-01T04:16:54.208Z,11.15
2023-05-01T04:19:23.025Z,11.27
2023-05-01T04:21:59.731Z,11.41
2023-05-01T04:24:28.325Z,11.30
2023-05-01T04:26:58.616Z,11.27
2023-05-01T04:29:27.562Z,11.19
2023-05-01T04:31:56.594Z,10.42
2023-05-01T04:34:29.274Z,9.69
2023-05-01T04:37:00.056Z,9.04
2023-05-01T04:39:28.990Z,8.94
2023-05-01T04:41:59.178Z,8.98
2023-05-01T04:44:28.284Z,9.11
2023-05-01T04:46:57.913Z,9.64
2023-05-01T04:49:26.488Z,9.99
2023-05-01T04:51:55.524Z,10.33
2023-05-01T04:54:28.055Z,10.57
2023-05-01T04:56:57.041Z,10.84
2023-05-01T04:59:25.686Z,11.15
2023-05-01T05:01:56.839Z,11.38
2023-05-01T05:04:25.662Z,11.69
2023-05-01T05:06:54.937Z,11.97
2023-05-01T05:09:32.692Z,12.09
2023-05-01T05:12:01.634Z,12.28
2023-05-01T05:14:31.455Z,12.20
2023-05-01T05:17:02.385Z,12.31
2023-05-01T05:19:31.089Z,12.43
2023-05-01T05:22:00.115Z,12.59
2023-05-01T05:24:28.797Z,12.82
2023-05-01T05:26:59.432Z,12.97
2023-05-01T05:29:28.234Z,13.11
2023-05-01T05:31:57.962Z,12.92
2023-05-01T05:34:26.787Z,13.01
2023-05-01T05:36:56.219Z,12.80
2023-05-01T05:39:27.109Z,12.36
2023-05-01T05:41:56.119Z,12.44
2023-05-01T05:44:26.943Z,12.61
2023-05-01T05:46:56.251Z,12.89
2023-05-01T05:49:31.584Z,13.12
2023-05-01T05:52:00.426Z,13.40
2023-05-01T05:54:29.276Z,13.48
2023-05-01T05:56:58.213Z,13.22
2023-05-01T05:59:28.641Z,13.15
2023-05-01T06:01:57.901Z,12.75
2023-05-01T06:04:26.581Z,12.95
2023-05-01T06:06:56.101Z,12.53
2023-05-01T06:09:25.318Z,12.81
2023-05-01T06:11:55.679Z,13.07
2023-05-01T06:14:26.080Z,13.29
2023-05-01T06:16:56.533Z,13.44
2023-05-01T06:19:25.358Z,13.71
2023-05-01T06:22:01.759Z,13.65
2023-05-01T06:24:39.815Z,13.16
2023-05-01T06:27:10.437Z,12.83
2023-05-01T06:29:39.420Z,12.59
2023-05-01T06:32:09.797Z,12.02
2023-05-01T06:34:38.500Z,11.89
2023-05-01T06:37:07.828Z,12.30
2023-05-01T06:39:36.629Z,12.81
2023-05-01T06:42:06.931Z,13.19
2023-05-01T06:44:41.613Z,13.60
2023-05-01T06:47:12.008Z,14.05
2023-05-01T06:49:43.707Z,14.50
2023-05-01T06:52:12.738Z,14.50
2023-05-01T06:54:41.489Z,14.37
2023-05-01T06:57:10.855Z,14.71
2023-05-01T06:59:40.270Z,14.52
2023-05-01T07:02:09.327Z,14.78
2023-05-01T07:04:39.581Z,14.17
2023-05-01T07:07:08.566Z,14.13
2023-05-01T07:09:37.443Z,14.10
2023-05-01T07:12:07.061Z,14.26
2023-05-01T07:14:36.166Z,14.40
2023-05-01T07:17:05.888Z,14.98
2023-05-01T07:19:34.864Z,14.95
2023-05-01T07:22:05.230Z,14.97
2023-05-01T07:24:33.770Z,15.28
2023-05-01T07:27:03.376Z,15.07
2023-05-01T07:29:32.226Z,15.10
2023-05-01T07:32:01.520Z,15.57
2023-05-01T07:34:31.368Z,15.97
2023-05-01T07:37:00.289Z,16.34
2023-05-01T07:39:30.383Z,16.38
2023-05-01T07:41:59.538Z,15.70
2023-05-01T07:44:28.140Z,14.94
2023-05-01T07:46:57.072Z,14.66
2023-05-01T07:49:25.613Z,14.58
2023-05-01T07:51:56.078Z,14.50
2023-05-01T07:54:24.712Z,14.51
2023-05-01T07:56:55.008Z,14.55
2023-05-01T07:59:23.644Z,14.40
2023-05-01T08:01:52.610Z,14.91
2023-05-01T08:04:22.871Z,14.76
2023-05-01T08:06:52.580Z,14.21
2023-05-01T08:09:21.351Z,14.39
2023-05-01T08:11:50.383Z,14.84
2023-05-01T08:14:20.429Z,15.19
2023-05-01T08:16:54.315Z,15.45
2023-05-01T08:19:23.313Z,15.56
2023-05-01T08:21:52.407Z,15.36
2023-05-01T08:24:21.256Z,15.80
2023-05-01T08:26:50.211Z,15.50
2023-05-01T08:29:20.140Z,16.02
2023-05-01T08:31:49.165Z,16.23
2023-05-01T08:34:17.807Z,16.63
2023-05-01T08:36:46.616Z,16.70
2023-05-01T08:39:15.385Z,17.09
2023-05-01T08:41:48.584Z,17.37
2023-05-01T08:44:18.090Z,17.47
2023-05-01T08:46:55.211Z,17.91
2023-05-01T08:49:25.221Z,18.01
2023-05-01T08:51:57.028Z,17.13
2023-05-01T08:54:28.906Z,17.71
2023-05-01T08:57:03.693Z,17.86
2023-05-01T08:59:35.191Z,17.69
2023-05-01T09:02:07.337Z,17.77
2023-05-01T09:04:38.195Z,18.05
2023-05-01T09:07:07.254Z,18.39
2023-05-01T09:09:35.970Z,18.54
2023-05-01T09:12:14.047Z,18.43
2023-05-01T09:14:42.789Z,17.50
2023-05-01T09:17:13.608Z,17.98
2023-05-01T09:19:42.302Z,18.26
2023-05-01T09:22:11.282Z,18.44
2023-05-01T09:24:40.051Z,16.92
2023-05-01T09:27:09.397Z,16.76
2023-05-01T09:29:41.956Z,17.21
2023-05-01T09:32:21.039Z,17.31
2023-05-01T09:34:50.789Z,17.74
2023-05-01T09:37:28.821Z,18.06
2023-05-01T09:40:05.958Z,18.43
2023-05-01T09:42:36.419Z,18.65
2023-05-01T09:45:07.337Z,18.54
2023-05-01T09:47:38.051Z,18.66
2023-05-01T09:50:07.663Z,17.88
2023-05-01T09:52:36.663Z,18.35
2023-05-01T09:55:15.954Z,18.77
2023-05-01T09:57:46.336Z,18.94
2023-05-01T10:00:16.909Z,19.26
2023-05-01T10:02:48.826Z,19.40
2023-05-01T10:05:17.595Z,19.67
2023-05-01T10:07:58.379Z,19.92
2023-05-01T10:10:27.455Z,19.70
2023-05-01T10:12:56.491Z,19.66
2023-05-01T10:15:37.113Z,19.84
2023-05-01T10:18:09.046Z,20.00
2023-05-01T10:20:37.769Z,19.98
2023-05-01T10:23:06.729Z,19.97
2023-05-01T10:25:38.529Z,20.18
2023-05-01T10:28:08.026Z,20.39
2023-05-01T10:30:38.232Z,20.27
2023-05-01T10:33:09.154Z,20.48
2023-05-01T10:35:41.825Z,20.58
2023-05-01T10:38:20.263Z,20.65
2023-05-01T10:40:49.898Z,20.68
2023-05-01T10:43:28.565Z,20.63
2023-05-01T10:46:29.924Z,20.79
2023-05-01T10:49:00.611Z,20.70
2023-05-01T10:51:29.490Z,20.89
2023-05-01T10:54:23.721Z,21.18
2023-05-01T10:56:52.593Z,21.18
2023-05-01T10:59:21.704Z,21.28
2023-05-01T11:01:52.304Z,21.33
2023-05-01T11:04:54.144Z,21.58
2023-05-01T11:07:27.032Z,21.58
2023-05-01T11:09:59.008Z,21.71
2023-05-01T11:12:51.087Z,21.99
2023-05-01T11:15:30.706Z,22.08
2023-05-01T11:18:00.253Z,22.06
2023-05-01T11:20:50.497Z,22.06
2023-05-01T11:23:23.903Z,22.07
2023-05-01T11:26:04.785Z,22.15
2023-05-01T11:28:34.292Z,22.23
2023-05-01T11:31:03.549Z,22.27
2023-05-01T11:33:32.445Z,22.32
2023-05-01T11:36:05.048Z,22.42
2023-05-01T11:38:33.796Z,22.22
2023-05-01T11:41:04.902Z,22.22
2023-05-01T11:43:33.528Z,22.12
2023-05-01T11:46:05.603Z,22.11
2023-05-01T11:48:34.426Z,22.11
2023-05-01T11:51:13.700Z,22.43
2023-05-01T11:53:42.358Z,22.56
2023-05-01T11:56:26.588Z,22.92
2023-05-01T11:58:57.860Z,22.94
2023-05-01T12:01:36.064Z,23.46
2023-05-01T12:04:05.811Z,23.67
2023-05-01T12:06:43.946Z,24.15
2023-05-01T12:09:17.451Z,24.13
2023-05-01T12:11:47.394Z,24.39
2023-05-01T12:14:16.769Z,24.58
2023-05-01T12:16:46.707Z,24.67
2023-05-01T12:19:16.718Z,25.06
2023-05-01T12:21:47.277Z,25.19
2023-05-01T12:24:17.551Z,25.31
2023-05-01T12:26:47.631Z,25.85
2023-05-01T12:29:16.250Z,26.23
2023-05-01T12:31:48.421Z,26.42
2023-05-01T12:34:17.241Z,26.41
2023-05-01T12:36:55.349Z,26.43
2023-05-01T12:39:24.614Z,26.24
2023-05-01T12:41:54.639Z,25.84
2023-05-01T12:44:25.046Z,25.50
2023-05-01T12:47:01.889Z,25.76
2023-05-01T12:49:32.584Z,26.11
2023-05-01T12:52:03.652Z,26.44
2023-05-01T12:54:34.129Z,26.95
2023-05-01T12:57:08.026Z,27.29
2023-05-01T12:59:38.019Z,27.81
2023-05-01T13:02:08.551Z,27.72
2023-05-01T13:04:37.623Z,27.42
2023-05-01T13:07:15.004Z,26.94
2023-05-01T13:09:53.732Z,26.87
2023-05-01T13:12:23.027Z,26.21
2023-05-01T13:14:52.476Z,25.97
2023-05-01T13:17:25.680Z,25.63
2023-05-01T13:19:55.994Z,25.16
2023-05-01T13:22:36.844Z,24.80
2023-05-01T13:25:15.286Z,24.50
2023-05-01T13:27:51.102Z,24.50
2023-05-01T13:30:22.841Z,24.37
2023-05-01T13:32:51.730Z,24.26
2023-05-01T13:35:25.612Z,24.14
2023-05-01T13:37:56.048Z,24.07
2023-05-01T13:40:26.243Z,24.03
2023-05-01T13:42:55.282Z,23.93
2023-05-01T13:45:24.383Z,23.87
2023-05-01T13:47:53.478Z,23.64
2023-05-01T13:50:22.498Z,23.33
2023-05-01T13:52:51.482Z,23.27
2023-05-01T13:55:23.257Z,23.08
2023-05-01T13:57:52.366Z,22.87
2023-05-01T14:00:22.581Z,22.74
2023-05-01T14:02:53.719Z,22.56
2023-05-01T14:05:28.174Z,22.70
2023-05-01T14:07:58.937Z,22.75
2023-05-01T14:10:30.004Z,22.54
2023-05-01T14:13:00.186Z,22.76
2023-05-01T14:15:29.629Z,22.71
2023-05-01T14:18:01.090Z,22.43
2023-05-01T14:20:30.139Z,22.46
2023-05-01T14:23:01.656Z,22.49
2023-05-01T14:25:34.846Z,22.54
2023-05-01T14:28:08.520Z,22.42
2023-05-01T14:30:38.681Z,22.35
2023-05-01T14:33:09.594Z,22.21
2023-05-01T14:35:43.569Z,22.21
2023-05-01T14:38:14.963Z,22.26
2023-05-01T14:40:45.900Z,22.37
2023-05-01T14:43:17.264Z,22.28
2023-05-01T14:45:49.034Z,21.93
2023-05-01T14:48:24.057Z,22.09
2023-05-01T14:50:55.037Z,21.97
2023-05-01T14:53:24.358Z,22.03
2023-05-01T14:55:54.863Z,22.01
2023-05-01T14:58:24.058Z,21.92
2023-05-01T15:00:52.657Z,22.04
2023-05-01T15:03:21.912Z,21.85
2023-05-01T15:05:50.571Z,21.91
2023-05-01T15:08:19.680Z,21.90
2023-05-01T15:10:48.348Z,21.78
2023-05-01T15:13:19.637Z,21.87
2023-05-01T15:15:48.324Z,22.09
2023-05-01T15:18:17.374Z,22.14
2023-05-01T15:20:46.399Z,22.02
2023-05-01T15:23:15.291Z,22.12
2023-05-01T15:25:44.533Z,21.96
2023-05-01T15:28:14.189Z,21.98
2023-05-01T15:30:47.564Z,21.63
2023-05-01T15:33:19.257Z,21.66
2023-05-01T15:35:48.821Z,21.50
2023-05-01T15:38:17.828Z,21.40
2023-05-01T15:40:47.309Z,21.50
2023-05-01T15:43:16.113Z,21.52
2023-05-01T15:45:46.292Z,21.39
2023-05-01T15:48:15.330Z,21.24
2023-05-01T15:50:44.583Z,21.52
2023-05-01T15:53:16.792Z,21.49
2023-05-01T15:55:45.472Z,21.52
2023-05-01T15:58:14.886Z,21.57
2023-05-01T16:00:44.509Z,21.41
2023-05-01T16:03:15.094Z,21.54
2023-05-01T16:05:46.543Z,21.52
2023-05-01T16:08:15.854Z,21.27
2023-05-01T16:10:44.517Z,21.42
2023-05-01T16:13:13.380Z,21.31
2023-05-01T16:15:42.154Z,21.29
2023-05-01T16:18:21.225Z,21.08
2023-05-01T16:20:53.493Z,21.26
2023-05-01T16:23:22.644Z,21.25
2023-05-01T16:25:51.599Z,21.19
2023-05-01T16:28:20.656Z,21.26
2023-05-01T16:30:49.355Z,21.22
2023-05-01T16:33:21.225Z,21.16
2023-05-01T16:35:50.565Z,20.94
2023-05-01T16:38:20.548Z,20.92
2023-05-01T16:40:49.450Z,20.83
2023-05-01T16:43:18.294Z,20.94
2023-05-01T16:45:47.122Z,20.94
2023-05-01T16:48:26.447Z,21.07
2023-05-01T16:50:55.073Z,20.95
2023-05-01T16:53:24.105Z,20.95
2023-05-01T16:55:53.323Z,20.91
2023-05-01T16:58:22.224Z,20.70
2023-05-01T17:00:50.925Z,20.67
2023-05-01T17:03:20.026Z,20.53
2023-05-01T17:05:49.976Z,20.34
2023-05-01T17:08:18.920Z,20.26
2023-05-01T17:10:47.582Z,20.26
2023-05-01T17:13:16.570Z,20.29
2023-05-01T17:15:45.326Z,20.20
2023-05-01T17:18:14.725Z,20.01
2023-05-01T17:20:43.316Z,20.02
2023-05-01T17:23:13.651Z,20.02
2023-05-01T17:25:42.403Z,20.07
2023-05-01T17:28:11.675Z,19.93
2023-05-01T17:30:40.300Z,19.92
2023-05-01T17:33:09.304Z,19.89
2023-05-01T17:35:37.904Z,19.69
2023-05-01T17:38:06.944Z,19.69
2023-05-01T17:40:37.027Z,19.63
2023-05-01T17:43:05.937Z,19.42
2023-05-01T17:45:34.587Z,19.20
2023-05-01T17:48:03.773Z,19.03
2023-05-01T17:50:32.556Z,18.83
2023-05-01T17:53:01.754Z,18.78
2023-05-01T17:55:30.383Z,18.88
2023-05-01T17:58:00.931Z,18.98
2023-05-01T18:00:30.708Z,19.08
2023-05-01T18:03:00.171Z,19.12
2023-05-01T18:05:28.866Z,18.94
2023-05-01T18:07:58.589Z,18.68
2023-05-01T18:10:31.459Z,18.52
2023-05-01T18:13:02.026Z,18.41
2023-05-01T18:15:30.858Z,18.33
2023-05-01T18:18:03.030Z,18.31
2023-05-01T18:20:32.171Z,18.19
2023-05-01T18:23:01.275Z,18.06
2023-05-01T18:25:30.100Z,18.01
2023-05-01T18:27:59.692Z,17.97
2023-05-01T18:30:29.847Z,17.84
2023-05-01T18:32:58.941Z,17.89
2023-05-01T18:35:27.519Z,17.75
2023-05-01T18:37:56.587Z,17.65
2023-05-01T18:40:27.099Z,17.83
2023-05-01T18:42:56.187Z,17.86
2023-05-01T18:45:24.752Z,17.83
2023-05-01T18:47:55.089Z,17.90
2023-05-01T18:50:24.019Z,17.86
2023-05-01T18:52:52.956Z,17.83
2023-05-01T18:55:21.567Z,17.77
2023-05-01T18:57:50.513Z,17.72
2023-05-01T19:00:20.426Z,17.70
2023-05-01T19:02:52.010Z,17.62
2023-05-01T19:05:24.504Z,17.64
2023-05-01T19:07:55.231Z,17.48
2023-05-01T19:10:24.092Z,17.51
2023-05-01T19:12:52.924Z,17.42
2023-05-01T19:15:21.494Z,17.42
2023-05-01T19:17:51.184Z,17.40
2023-05-01T19:20:19.863Z,17.39
2023-05-01T19:22:50.139Z,17.35
2023-05-01T19:25:18.860Z,17.28
2023-05-01T19:27:48.194Z,17.33
2023-05-01T19:30:17.194Z,17.26
2023-05-01T19:32:46.898Z,17.22
2023-05-01T19:35:16.267Z,17.20
2023-05-01T19:37:45.152Z,17.13
2023-05-01T19:40:15.992Z,17.03
2023-05-01T19:42:44.924Z,17.00
2023-05-01T19:45:14.322Z,16.92
2023-05-01T19:47:44.939Z,16.89
2023-05-01T19:50:13.450Z,16.81
2023-05-01T19:52:42.446Z,16.84
2023-05-01T19:55:12.974Z,16.71
2023-05-01T19:57:43.309Z,16.71
2023-05-01T20:00:12.974Z,16.68
2023-05-01T20:02:42.825Z,16.65
2023-05-01T20:05:13.429Z,16.57
2023-05-01T20:07:42.903Z,16.55
2023-05-01T20:10:11.984Z,16.58
2023-05-01T20:12:42.171Z,16.48
2023-05-01T20:15:12.928Z,16.53
2023-05-01T20:17:43.223Z,16.51
2023-05-01T20:20:13.159Z,16.47
2023-05-01T20:22:42.558Z,16.36
2023-05-01T20:25:12.234Z,16.35
2023-05-01T20:27:42.119Z,16.32
2023-05-01T20:30:13.007Z,16.35
2023-05-01T20:32:44.208Z,16.37
2023-05-01T20:35:13.330Z,16.34
2023-05-01T20:37:42.370Z,16.25
2023-05-01T20:40:12.338Z,16.12
2023-05-01T20:42:41.478Z,16.14
2023-05-01T20:45:12.281Z,16.13
2023-05-01T20:47:41.390Z,16.10
2023-05-01T20:50:11.452Z,16.03
2023-05-01T20:52:40.506Z,16.05
2023-05-01T20:55:10.146Z,15.92
2023-05-01T20:57:41.955Z,15.96
2023-05-01T21:00:13.158Z,15.88
2023-05-01T21:02:46.209Z,15.81
2023-05-01T21:05:16.296Z,15.81
2023-05-01T21:07:45.432Z,15.77
2023-05-01T21:10:16.586Z,15.70
2023-05-01T21:12:46.010Z,15.75
2023-05-01T21:15:16.084Z,15.75
2023-05-01T21:17:48.146Z,15.68
2023-05-01T21:20:18.230Z,15.68
2023-05-01T21:22:50.201Z,15.68
2023-05-01T21:25:26.934Z,15.64
2023-05-01T21:27:56.061Z,15.60
2023-05-01T21:30:33.515Z,15.67
2023-05-01T21:33:03.255Z,15.54
2023-05-01T21:35:32.109Z,15.60
2023-05-01T21:38:01.759Z,15.60
2023-05-01T21:40:30.644Z,15.54
2023-05-01T21:43:01.312Z,15.53
2023-05-01T21:45:32.427Z,15.53
2023-05-01T21:48:01.318Z,15.54
2023-05-01T21:50:34.960Z,15.35
2023-05-01T21:53:04.298Z,15.49
2023-05-01T21:55:33.338Z,15.38
2023-05-01T21:58:04.127Z,15.38
2023-05-01T22:00:34.809Z,15.41
2023-05-01T22:03:08.329Z,15.43
2023-05-01T22:05:40.892Z,15.38
2023-05-01T22:08:10.174Z,15.32
2023-05-01T22:10:38.688Z,15.33
2023-05-01T22:13:07.607Z,15.30
2023-05-01T22:15:37.730Z,15.21
2023-05-01T22:18:07.056Z,15.24
2023-05-01T22:20:35.664Z,15.28
2023-05-01T22:23:04.543Z,15.29
2023-05-01T22:25:33.157Z,15.24
2023-05-01T22:28:04.359Z,15.14
2023-05-01T22:30:34.826Z,15.01
2023-05-01T22:33:05.878Z,15.08
2023-05-01T22:35:34.509Z,15.00
2023-05-01T22:38:03.287Z,15.01
2023-05-01T22:40:31.953Z,14.92
2023-05-01T22:43:01.222Z,14.97
2023-05-01T22:45:29.904Z,14.90
2023-05-01T22:47:58.929Z,14.86
2023-05-01T22:50:29.080Z,14.79
2023-05-01T22:52:58.096Z,14.84
2023-05-01T22:55:26.714Z,14.83
2023-05-01T22:57:55.698Z,14.88
2023-05-01T23:00:24.681Z,14.85
2023-05-01T23:02:53.658Z,14.79
2023-05-01T23:05:22.375Z,14.81
2023-05-01T23:07:52.631Z,14.86
2023-05-01T23:10:24.329Z,14.83
2023-05-01T23:12:53.347Z,14.82
2023-05-01T23:15:25.398Z,14.84
2023-05-01T23:17:54.515Z,14.88
2023-05-01T23:20:24.771Z,14.71
2023-05-01T23:22:55.102Z,14.73
2023-05-01T23:25:26.425Z,14.68
2023-05-01T23:27:57.052Z,14.67
2023-05-01T23:30:25.655Z,14.65
2023-05-01T23:32:59.799Z,14.66
2023-05-01T23:35:28.391Z,14.61
2023-05-01T23:37:58.624Z,14.52
2023-05-01T23:40:27.339Z,14.36
2023-05-01T23:42:56.260Z,14.35
2023-05-01T23:45:25.550Z,14.22
2023-05-01T23:47:54.766Z,14.25
2023-05-01T23:50:25.265Z,14.18
2023-05-01T23:52:54.154Z,14.18
2023-05-01T23:55:24.246Z,14.14
2023-05-01T23:57:53.732Z,14.09
